バルセロナ の空港の天気 - METARとTAF

バルセロナ・エル・プラット国際空港 ( LEBL / BCN ) - スペイン バルセロナ
飛行場実況気象(Metar)
観測時間06/23 03:30 CEST (06/23 01:30 UTC)
風向・風速南西 4m/s
視程10km以上
天気現象
少しの雲 雲底高度 910m
気温23℃
湿度83%
気圧1019hPa
METARLEBL 230130Z 22008KT 9999 FEW030 23/20 Q1019 NOSIG
過去の天気等 Google飛行場航空写真 Wunderground天気予報

過去48時間のMETAR

飛行場予報(TAF)
発表時間: 6/23 01:00 CEST (6/22 23:00 UTC)
予報対象時間: 23日2時 CEST ~ 24日2時 CEST
風向・風速西 3m/s
視程10km以上
少しの雲 雲底高度 910m
23日4時 CEST ~ 23日10時 CEST に一時的に
風向・風速北西 3m/s
23日10時 CEST ~ 23日12時 CEST に徐々に
風向・風速南西 6m/s
TAF LEBL 222300Z 2300/2324 26006KT 9999 FEW030 TX30/2313Z TN22/2306Z
TEMPO 2302/2308 32006KT
BECMG 2308/2310 22012KT